Time;durP1;ratioP1;P1;durP2;ratioP2;P2;SDS_P1;SDS_P2;PMS_P1;PMS_P2;Temp;Humidity;BMP_temperature;BMP_pressure;BME280_temperature;BME280_humidity;BME280_pressure;Samples;Min_cycle;Max_cycle;Signal;HPM_P1;HPM_P2
2023/03/11 00:00:49;;;;;;;;;;;;;;;15.07;60.46;93329.78;5033986;28;20080;-62
2023/03/11 00:03:17;;;;;;;;;;;;;;;15.37;59.57;93316.53;5030503;28;21095;-64
2023/03/11 00:05:44;;;;;;;;;;;;;;;15.46;58.94;93331.25;5032246;28;19948;-64
2023/03/11 00:08:14;;;;;;;;;;;;;;;15.25;60.20;93343.63;5035577;28;20064;-61
2023/03/11 00:10:41;;;;;;;;;;;;;;;14.87;59.29;93353.50;5034907;28;19956;-62
2023/03/11 00:13:09;;;;;;;;;;;;;;;14.92;59.47;93333.00;5029562;28;20283;-63
2023/03/11 00:15:36;;;;;;;;;;;;;;;14.69;58.84;93317.78;5031579;28;20379;-61
2023/03/11 00:18:03;;;;;;;;;;;;;;;14.63;58.26;93319.03;5034053;28;20751;-62
2023/03/11 00:20:31;;;;;;;;;;;;;;;14.54;58.56;93324.34;5033606;28;19968;-61
2023/03/11 00:22:58;;;;;;;;;;;;;;;14.75;57.69;93309.34;5030754;28;20401;-63
2023/03/11 00:25:26;;;;;;;;;;;;;;;14.75;58.30;93308.56;5030173;28;20024;-61
2023/03/11 00:27:53;;;;;;;;;;;;;;;14.56;58.43;93295.78;5032979;28;20435;-61
2023/03/11 00:30:20;;;;;;;;;;;;;;;14.66;57.65;93308.63;5033806;28;19944;-62
2023/03/11 00:32:48;;;;;;;;;;;;;;;14.02;59.44;93307.94;5031606;28;20374;-61
2023/03/11 00:35:16;;;;;;;;;;;;;;;14.02;59.41;93315.03;5030150;28;19982;-63
2023/03/11 00:37:44;;;;;;;;;;;;;;;14.06;59.69;93308.84;5028585;28;19947;-65
2023/03/11 00:40:12;;;;;;;;;;;;;;;14.69;57.97;93304.59;5024833;28;19955;-62
2023/03/11 00:42:39;;;;;;;;;;;;;;;14.14;59.27;93307.28;5029152;28;19963;-61
2023/03/11 00:45:06;;;;;;;;;;;;;;;14.33;58.24;93297.16;5030858;28;19952;-63
2023/03/11 00:47:33;;;;;;;;;;;;;;;14.54;58.56;93307.75;5032427;28;19956;-63
2023/03/11 00:50:00;;;;;;;;;;;;;;;14.21;58.78;93294.38;5050135;28;19955;-62
2023/03/11 00:52:27;;;;;;;;;;;;;;;14.33;59.03;93281.34;5032122;28;19956;-62
2023/03/11 00:54:54;;;;;;;;;;;;;;;14.67;57.93;93283.78;5031774;28;20017;-62
2023/03/11 00:57:21;;;;;;;;;;;;;;;14.25;58.71;93284.75;5031178;28;20439;-61
2023/03/11 00:59:48;;;;;;;;;;;;;;;13.55;60.51;93269.47;5027692;28;20326;-63
2023/03/11 01:02:15;;;;;;;;;;;;;;;14.38;59.26;93267.97;5028625;28;19984;-62
2023/03/11 01:04:41;;;;;;;;;;;;;;;14.76;58.26;93260.78;5030361;28;19978;-62
2023/03/11 01:07:08;;;;;;;;;;;;;;;15.09;56.87;93266.16;5025595;28;20039;-61
2023/03/11 01:09:37;;;;;;;;;;;;;;;15.16;56.62;93264.53;5039036;28;19986;-62
2023/03/11 01:12:03;;;;;;;;;;;;;;;15.22;56.36;93255.34;5029764;28;19955;-62
2023/03/11 01:14:30;;;;;;;;;;;;;;;15.30;56.76;93255.59;5030765;28;20630;-62
2023/03/11 01:16:57;;;;;;;;;;;;;;;15.23;56.97;93256.91;5025222;28;19946;-62
2023/03/11 01:19:23;;;;;;;;;;;;;;;14.84;57.35;93249.41;5030405;28;20011;-63
2023/03/11 01:21:52;;;;;;;;;;;;;;;15.06;56.99;93243.84;5029810;28;19950;-63
2023/03/11 01:24:19;;;;;;;;;;;;;;;15.05;56.47;93234.34;5030997;28;19950;-64
2023/03/11 01:26:46;;;;;;;;;;;;;;;15.21;55.89;93226.66;5026196;28;20425;-65
2023/03/11 01:29:12;;;;;;;;;;;;;;;15.34;56.10;93217.69;5027531;28;20454;-63
2023/03/11 01:31:39;;;;;;;;;;;;;;;15.01;56.87;93215.03;5030010;28;20250;-63
2023/03/11 01:34:06;;;;;;;;;;;;;;;15.09;56.34;93219.44;5029932;28;19954;-63
2023/03/11 01:36:33;;;;;;;;;;;;;;;15.04;56.43;93211.72;5027107;28;19954;-63
2023/03/11 01:38:59;;;;;;;;;;;;;;;15.16;56.85;93197.84;5028612;28;20010;-64
2023/03/11 01:41:26;;;;;;;;;;;;;;;15.18;56.59;93193.00;5029409;28;20002;-63
2023/03/11 01:43:53;;;;;;;;;;;;;;;14.94;56.76;93185.72;5030005;28;19959;-63
2023/03/11 01:46:25;;;;;;;;;;;;;;;14.85;57.10;93192.19;5026398;28;19982;-63
2023/03/11 01:48:56;;;;;;;;;;;;;;;15.07;55.81;93189.97;5028615;28;20416;-61
2023/03/11 01:51:34;;;;;;;;;;;;;;;14.98;56.92;93176.09;5024133;28;19959;-63
2023/03/11 01:54:04;;;;;;;;;;;;;;;14.96;56.87;93180.91;5028578;28;20002;-62
2023/03/11 01:56:31;;;;;;;;;;;;;;;14.93;57.30;93181.56;5027567;28;19961;-63
2023/03/11 01:58:59;;;;;;;;;;;;;;;14.72;57.82;93194.00;5028821;28;20409;-62
2023/03/11 02:01:25;;;;;;;;;;;;;;;14.78;58.00;93202.50;5037845;28;19963;-63
2023/03/11 02:03:54;;;;;;;;;;;;;;;14.55;57.90;93220.47;5046911;28;19981;-62
2023/03/11 02:06:22;;;;;;;;;;;;;;;14.49;58.32;93226.25;5024885;28;19972;-63
2023/03/11 02:08:50;;;;;;;;;;;;;;;14.85;57.72;93208.75;5026411;28;20022;-63
2023/03/11 02:11:23;;;;;;;;;;;;;;;14.76;57.50;93221.25;5027735;28;20003;-63
2023/03/11 02:13:53;;;;;;;;;;;;;;;14.46;58.36;93222.38;5026921;28;19948;-63
2023/03/11 02:16:20;;;;;;;;;;;;;;;14.74;57.47;93228.72;5025746;28;20416;-63
2023/03/11 02:18:47;;;;;;;;;;;;;;;14.83;57.48;93231.28;5024992;28;19953;-64
2023/03/11 02:21:25;;;;;;;;;;;;;;;14.79;57.07;93241.72;5027459;28;20084;-63
2023/03/11 02:24:12;;;;;;;;;;;;;;;14.83;57.23;93245.25;5027850;28;19957;-62
2023/03/11 02:26:43;;;;;;;;;;;;;;;14.92;56.59;93251.25;5023825;28;19945;-62
2023/03/11 02:29:10;;;;;;;;;;;;;;;14.23;58.86;93239.53;5006059;28;20022;-64
2023/03/11 02:31:40;;;;;;;;;;;;;;;14.73;57.02;93248.25;5023480;28;19934;-63
2023/03/11 02:34:14;;;;;;;;;;;;;;;14.48;57.92;93241.28;5027821;28;19960;-62
2023/03/11 02:36:41;;;;;;;;;;;;;;;14.59;57.40;93237.19;5024854;28;19949;-62
2023/03/11 02:39:11;;;;;;;;;;;;;;;14.40;57.94;93236.81;5027380;28;20501;-61
2023/03/11 02:41:40;;;;;;;;;;;;;;;14.00;59.05;93231.09;5026492;28;19961;-63
2023/03/11 02:44:09;;;;;;;;;;;;;;;14.42;58.41;93232.00;5030513;28;19959;-62
2023/03/11 02:46:37;;;;;;;;;;;;;;;14.08;58.95;93232.16;5024973;28;19954;-62
2023/03/11 02:49:05;;;;;;;;;;;;;;;14.30;58.01;93250.38;5028438;28;19974;-62
2023/03/11 02:51:32;;;;;;;;;;;;;;;14.50;57.60;93248.88;5029621;28;19989;-62
2023/03/11 02:54:02;;;;;;;;;;;;;;;13.87;59.72;93258.41;5027226;28;20324;-62
2023/03/11 02:56:29;;;;;;;;;;;;;;;14.09;58.86;93265.28;5024461;28;20099;-61
2023/03/11 02:58:57;;;;;;;;;;;;;;;13.78;59.69;93254.25;5026845;28;19950;-62
2023/03/11 03:01:24;;;;;;;;;;;;;;;14.10;58.99;93258.94;5014471;28;20443;-62
2023/03/11 03:03:51;;;;;;;;;;;;;;;14.30;58.17;93245.09;5027390;28;20162;-62
2023/03/11 03:06:18;;;;;;;;;;;;;;;14.37;58.29;93249.88;5025547;28;19955;-62
2023/03/11 03:08:49;;;;;;;;;;;;;;;14.36;58.83;93250.97;5024975;28;19960;-63
2023/03/11 03:11:16;;;;;;;;;;;;;;;14.70;57.10;93243.63;5026769;28;19952;-62
2023/03/11 03:13:44;;;;;;;;;;;;;;;14.65;57.22;93256.97;5027985;28;20441;-63
2023/03/11 03:16:11;;;;;;;;;;;;;;;14.62;57.87;93254.22;5025537;28;20318;-61
2023/03/11 03:18:38;;;;;;;;;;;;;;;14.74;57.60;93251.66;5027663;28;20386;-62
2023/03/11 03:21:06;;;;;;;;;;;;;;;14.65;57.67;93251.72;5018760;28;19961;-61
2023/03/11 03:23:36;;;;;;;;;;;;;;;14.83;57.31;93260.28;5024549;28;19958;-62
2023/03/11 03:26:04;;;;;;;;;;;;;;;14.72;57.58;93259.91;5026644;28;20031;-63
2023/03/11 03:28:34;;;;;;;;;;;;;;;14.64;57.75;93255.44;5025619;28;20047;-62
2023/03/11 03:31:05;;;;;;;;;;;;;;;14.66;57.39;93253.28;5026207;28;20138;-62
2023/03/11 03:33:33;;;;;;;;;;;;;;;14.75;57.49;93251.34;5029826;28;19965;-62
2023/03/11 03:36:04;;;;;;;;;;;;;;;14.75;57.42;93261.91;5024241;28;20000;-64
2023/03/11 03:38:37;;;;;;;;;;;;;;;14.64;58.07;93255.44;5024790;28;20559;-62
2023/03/11 03:41:03;;;;;;;;;;;;;;;14.64;57.64;93249.41;5025980;28;19972;-62
2023/03/11 03:43:32;;;;;;;;;;;;;;;14.80;56.79;93259.06;5040545;28;19949;-62
2023/03/11 03:46:03;;;;;;;;;;;;;;;14.58;58.03;93255.97;5026120;28;19943;-62
2023/03/11 03:48:37;;;;;;;;;;;;;;;14.80;57.33;93253.78;5024897;28;20375;-62
2023/03/11 03:51:07;;;;;;;;;;;;;;;14.79;56.97;93252.25;5026504;28;20413;-62
2023/03/11 03:53:35;;;;;;;;;;;;;;;14.69;57.09;93236.81;5035246;28;19979;-62
2023/03/11 03:56:03;;;;;;;;;;;;;;;14.49;58.51;93245.44;5025209;28;20408;-63
2023/03/11 03:58:32;;;;;;;;;;;;;;;14.64;58.12;93244.13;5025621;28;19952;-62
2023/03/11 04:00:59;;;;;;;;;;;;;;;14.51;57.79;93245.13;5025316;28;19955;-63
2023/03/11 04:03:26;;;;;;;;;;;;;;;14.67;57.99;93246.13;5039766;28;20076;-65
2023/03/11 04:06:24;;;;;;;;;;;;;;;14.87;57.33;93248.03;5024204;28;20382;-63
2023/03/11 04:08:56;;;;;;;;;;;;;;;14.91;56.98;93249.69;5039529;28;20045;-64
2023/03/11 04:11:27;;;;;;;;;;;;;;;14.68;57.22;93247.66;5025975;28;19950;-63
2023/03/11 04:13:55;;;;;;;;;;;;;;;14.81;57.13;93223.72;5026612;28;19949;-63
2023/03/11 04:16:23;;;;;;;;;;;;;;;13.79;60.19;93243.41;5022920;28;19981;-63
2023/03/11 04:18:55;;;;;;;;;;;;;;;13.33;60.19;93251.25;5026119;28;20481;-61
2023/03/11 04:21:23;;;;;;;;;;;;;;;14.28;57.79;93244.66;5022437;28;20065;-64
2023/03/11 04:23:49;;;;;;;;;;;;;;;14.13;58.23;93242.50;5026884;28;19988;-62
2023/03/11 04:26:20;;;;;;;;;;;;;;;14.21;58.60;93252.25;5026007;28;19957;-62
2023/03/11 04:28:47;;;;;;;;;;;;;;;14.32;57.97;93253.47;5043419;28;20414;-61
2023/03/11 04:31:14;;;;;;;;;;;;;;;14.39;58.10;93253.75;5026624;28;20416;-63
2023/03/11 04:33:40;;;;;;;;;;;;;;;13.59;59.84;93256.47;5028232;28;20029;-63
2023/03/11 04:36:09;;;;;;;;;;;;;;;13.77;59.06;93252.72;5028837;28;19957;-62
2023/03/11 04:38:37;;;;;;;;;;;;;;;14.01;58.21;93247.69;5030118;28;19950;-63
2023/03/11 04:41:06;;;;;;;;;;;;;;;14.22;57.97;93249.28;5031022;28;20166;-62
2023/03/11 04:43:35;;;;;;;;;;;;;;;14.10;57.77;93246.53;5027725;28;20019;-62
2023/03/11 04:46:02;;;;;;;;;;;;;;;14.33;57.68;93243.69;5028461;28;19960;-64
2023/03/11 04:48:28;;;;;;;;;;;;;;;14.17;54.59;93246.84;5028222;28;19961;-63
2023/03/11 04:50:55;;;;;;;;;;;;;;;14.37;54.78;93240.09;5030051;28;20565;-63
2023/03/11 04:53:23;;;;;;;;;;;;;;;14.32;54.32;93240.28;5029409;28;19960;-62
2023/03/11 04:55:51;;;;;;;;;;;;;;;13.84;54.91;93243.25;5018866;28;19999;-63
2023/03/11 04:58:18;;;;;;;;;;;;;;;14.51;53.25;93240.63;5030151;28;20536;-64
2023/03/11 05:00:46;;;;;;;;;;;;;;;14.54;53.46;93253.19;5023399;28;19960;-64
2023/03/11 05:03:14;;;;;;;;;;;;;;;14.55;53.86;93267.13;5029578;28;20418;-64
2023/03/11 05:05:41;;;;;;;;;;;;;;;14.82;54.11;93267.44;5030137;28;19964;-64
2023/03/11 05:08:08;;;;;;;;;;;;;;;14.84;54.68;93265.25;5029858;28;20044;-62
2023/03/11 05:10:35;;;;;;;;;;;;;;;14.76;54.40;93268.69;5041746;28;20412;-65
2023/03/11 05:13:04;;;;;;;;;;;;;;;14.50;55.66;93270.72;5016848;28;20480;-66
2023/03/11 05:15:36;;;;;;;;;;;;;;;14.76;54.79;93273.97;5026042;28;19989;-65
2023/03/11 05:18:04;;;;;;;;;;;;;;;14.30;52.60;93271.44;5033190;28;20047;-63
2023/03/11 05:20:33;;;;;;;;;;;;;;;13.78;51.54;93280.56;5041861;28;19952;-68
2023/03/11 05:23:00;;;;;;;;;;;;;;;13.98;50.59;93274.63;5029801;28;19975;-64
2023/03/11 05:25:29;;;;;;;;;;;;;;;14.53;47.58;93285.13;5028756;28;19949;-63
2023/03/11 05:27:56;;;;;;;;;;;;;;;14.63;47.47;93285.53;5035304;28;19970;-65
2023/03/11 05:30:23;;;;;;;;;;;;;;;14.62;46.93;93278.72;5039027;28;19952;-65
2023/03/11 05:32:50;;;;;;;;;;;;;;;14.78;46.30;93290.25;5033528;28;20419;-64
2023/03/11 05:35:17;;;;;;;;;;;;;;;14.32;46.89;93290.34;5033394;28;19963;-63
2023/03/11 05:37:44;;;;;;;;;;;;;;;14.36;46.50;93296.50;5029166;28;19978;-63
2023/03/11 05:40:12;;;;;;;;;;;;;;;14.38;46.96;93302.25;5030727;28;19959;-66
2023/03/11 05:42:40;;;;;;;;;;;;;;;14.58;46.38;93300.78;5028551;28;19975;-63
2023/03/11 05:45:09;;;;;;;;;;;;;;;14.86;45.33;93304.47;5028820;28;19954;-65
2023/03/11 05:47:37;;;;;;;;;;;;;;;14.79;45.17;93312.91;5028822;28;20069;-66
2023/03/11 05:50:05;;;;;;;;;;;;;;;15.11;45.28;93317.50;5029023;28;19966;-66
2023/03/11 05:52:32;;;;;;;;;;;;;;;15.61;44.38;93312.16;5029371;28;20377;-65
2023/03/11 05:54:59;;;;;;;;;;;;;;;15.46;44.30;93319.91;5029210;28;20029;-62
2023/03/11 05:57:28;;;;;;;;;;;;;;;14.78;44.61;93321.13;5027790;28;20356;-63
2023/03/11 05:59:55;;;;;;;;;;;;;;;14.67;45.67;93328.59;5027611;28;20000;-65
2023/03/11 06:02:23;;;;;;;;;;;;;;;14.64;46.41;93334.53;5027705;28;20048;-65
2023/03/11 06:04:50;;;;;;;;;;;;;;;14.69;46.18;93342.25;5028570;28;19969;-64
2023/03/11 06:07:17;;;;;;;;;;;;;;;14.60;46.29;93341.53;5029346;28;19955;-63
2023/03/11 06:09:48;;;;;;;;;;;;;;;15.33;45.41;93324.31;5046001;28;19953;-66
2023/03/11 06:12:17;;;;;;;;;;;;;;;15.09;45.59;93340.03;5032976;28;20561;-64
2023/03/11 06:15:02;;;;;;;;;;;;;;;15.65;45.35;93338.69;5031153;28;19956;-67
2023/03/11 06:17:29;;;;;;;;;;;;;;;15.57;45.38;93339.53;5028296;28;20040;-64
2023/03/11 06:19:56;;;;;;;;;;;;;;;15.11;45.05;93338.59;5029496;28;19952;-66
2023/03/11 06:22:24;;;;;;;;;;;;;;;15.04;45.90;93343.63;5015556;28;19965;-64
2023/03/11 06:24:51;;;;;;;;;;;;;;;14.63;46.94;93354.09;5028986;28;20046;-67
2023/03/11 06:27:18;;;;;;;;;;;;;;;14.95;46.30;93353.44;5028522;28;20380;-67
2023/03/11 06:29:44;;;;;;;;;;;;;;;14.75;47.25;93345.47;5029036;28;19950;-63
2023/03/11 06:32:14;;;;;;;;;;;;;;;14.49;47.95;93353.50;5028934;28;20109;-63
2023/03/11 06:34:41;;;;;;;;;;;;;;;14.85;47.67;93350.41;5029940;28;19963;-67
2023/03/11 06:37:08;;;;;;;;;;;;;;;15.07;47.67;93342.97;5028358;28;19945;-64
2023/03/11 06:39:34;;;;;;;;;;;;;;;15.27;47.12;93344.84;5029952;28;19953;-64
2023/03/11 06:42:01;;;;;;;;;;;;;;;15.28;47.42;93348.25;5019267;28;19968;-64
2023/03/11 06:44:28;;;;;;;;;;;;;;;15.24;47.52;93342.88;5024377;28;20007;-63
2023/03/11 06:46:55;;;;;;;;;;;;;;;15.04;48.10;93342.84;5029942;28;19955;-68
2023/03/11 06:49:22;;;;;;;;;;;;;;;15.34;47.32;93340.94;5029842;28;19953;-63
2023/03/11 06:51:49;;;;;;;;;;;;;;;15.53;47.14;93343.94;5044576;28;20478;-67
2023/03/11 06:54:16;;;;;;;;;;;;;;;15.22;46.60;93345.03;5045629;28;20334;-68
2023/03/11 06:56:43;;;;;;;;;;;;;;;15.47;47.60;93343.34;5029188;28;19958;-65
2023/03/11 06:59:13;;;;;;;;;;;;;;;15.56;47.15;93348.56;5027214;28;20010;-68
2023/03/11 07:01:39;;;;;;;;;;;;;;;15.77;47.50;93349.28;5027769;28;20401;-67
2023/03/11 07:04:09;;;;;;;;;;;;;;;15.68;47.00;93348.59;5028888;28;19948;-65
2023/03/11 07:06:38;;;;;;;;;;;;;;;15.35;46.66;93347.75;5028223;28;19944;-62
2023/03/11 07:09:10;;;;;;;;;;;;;;;15.18;47.43;93349.41;5034253;28;19949;-63
2023/03/11 07:11:41;;;;;;;;;;;;;;;14.63;47.55;93348.81;5038086;28;20095;-65
2023/03/11 07:14:11;;;;;;;;;;;;;;;15.02;47.26;93356.34;5036854;28;19955;-65
2023/03/11 07:16:42;;;;;;;;;;;;;;;14.16;47.83;93355.13;5035347;28;20040;-64
2023/03/11 07:19:17;;;;;;;;;;;;;;;14.36;47.67;93362.38;5030320;28;19955;-63
2023/03/11 07:21:44;;;;;;;;;;;;;;;14.62;47.83;93347.25;5029525;28;19953;-62
2023/03/11 07:24:13;;;;;;;;;;;;;;;14.84;48.14;93343.56;5028599;28;20682;-65
2023/03/11 07:26:39;;;;;;;;;;;;;;;15.40;46.77;93342.28;5028699;28;20392;-64
2023/03/11 07:29:09;;;;;;;;;;;;;;;15.87;46.32;93339.13;5029275;28;19947;-63
2023/03/11 07:31:36;;;;;;;;;;;;;;;15.66;46.32;93333.09;5027499;28;19961;-65
2023/03/11 07:34:09;;;;;;;;;;;;;;;15.53;45.59;93333.38;5029151;28;19961;-64
2023/03/11 07:36:38;;;;;;;;;;;;;;;15.84;45.56;93328.41;5027381;28;20003;-66
2023/03/11 07:39:05;;;;;;;;;;;;;;;16.12;46.48;93324.09;5029419;28;20047;-65
2023/03/11 07:41:33;;;;;;;;;;;;;;;16.20;45.63;93316.06;5028333;28;20426;-62
2023/03/11 07:44:00;;;;;;;;;;;;;;;16.29;45.56;93309.94;5029627;28;20062;-62
2023/03/11 07:46:27;;;;;;;;;;;;;;;15.95;44.53;93318.97;5027938;28;19984;-64
2023/03/11 07:48:54;;;;;;;;;;;;;;;15.99;44.71;93302.16;5029144;28;20422;-62
2023/03/11 07:51:23;;;;;;;;;;;;;;;16.44;45.14;93307.41;5024659;28;20459;-63
2023/03/11 07:53:51;;;;;;;;;;;;;;;16.69;44.49;93301.06;5029170;28;19949;-64
2023/03/11 07:56:19;;;;;;;;;;;;;;;16.32;43.18;93296.84;5028209;28;20341;-65
2023/03/11 07:58:45;;;;;;;;;;;;;;;16.38;43.70;93298.16;5028592;28;20038;-62
2023/03/11 08:01:16;;;;;;;;;;;;;;;15.95;43.68;93287.28;5028433;28;19957;-63
2023/03/11 08:03:44;;;;;;;;;;;;;;;16.30;42.61;93283.16;5028962;28;19952;-61
2023/03/11 08:06:21;;;;;;;;;;;;;;;16.88;42.05;93276.69;5027813;28;20299;-63
2023/03/11 08:08:48;;;;;;;;;;;;;;;17.38;42.53;93261.13;5028500;28;20047;-64
2023/03/11 08:11:15;;;;;;;;;;;;;;;17.57;41.17;93260.53;5031246;28;19956;-64
2023/03/11 08:13:42;;;;;;;;;;;;;;;16.89;40.91;93265.78;5033054;28;19978;-64
2023/03/11 08:16:10;;;;;;;;;;;;;;;16.51;42.16;93260.09;5032458;28;19964;-65
2023/03/11 08:18:37;;;;;;;;;;;;;;;16.48;42.24;93252.81;5033277;28;20369;-62
2023/03/11 08:21:04;;;;;;;;;;;;;;;16.93;41.51;93253.41;5034994;28;19981;-63
2023/03/11 08:23:32;;;;;;;;;;;;;;;16.79;41.43;93255.66;5033010;28;19990;-63
2023/03/11 08:26:03;;;;;;;;;;;;;;;17.43;40.58;93236.28;5032587;28;19977;-63
2023/03/11 08:28:30;;;;;;;;;;;;;;;17.78;40.45;93224.00;5032352;28;19963;-63
2023/03/11 08:30:56;;;;;;;;;;;;;;;18.45;39.75;93221.16;5032096;28;19978;-64
2023/03/11 08:33:23;;;;;;;;;;;;;;;17.75;38.34;93214.09;5032599;28;19970;-68
2023/03/11 08:35:50;;;;;;;;;;;;;;;17.98;38.03;93223.00;5030056;28;19973;-66
2023/03/11 08:38:17;;;;;;;;;;;;;;;18.63;36.78;93211.69;5032194;28;19929;-63
2023/03/11 08:40:43;;;;;;;;;;;;;;;18.52;36.72;93205.38;5031827;28;20009;-65
2023/03/11 08:43:13;;;;;;;;;;;;;;;17.54;37.87;93211.66;5032024;28;20075;-65
2023/03/11 08:45:40;;;;;;;;;;;;;;;17.49;38.56;93206.63;5031680;28;20303;-72
2023/03/11 08:48:09;;;;;;;;;;;;;;;17.22;38.24;93221.34;5032264;28;19967;-67
2023/03/11 08:50:36;;;;;;;;;;;;;;;17.82;37.46;93198.38;5031073;28;19945;-65
2023/03/11 08:53:20;;;;;;;;;;;;;;;17.55;37.62;93193.91;5036237;28;19949;-62
2023/03/11 08:55:46;;;;;;;;;;;;;;;18.19;37.53;93189.84;5024967;28;20061;-66
2023/03/11 08:58:13;;;;;;;;;;;;;;;18.76;36.77;93183.94;5032878;28;19944;-66
2023/03/11 09:00:40;;;;;;;;;;;;;;;19.17;34.96;93183.31;5031462;28;19950;-66
2023/03/11 09:03:06;;;;;;;;;;;;;;;18.65;34.78;93188.25;5031765;28;20009;-63
2023/03/11 09:05:33;;;;;;;;;;;;;;;18.71;36.27;93181.56;5030714;28;19950;-69
2023/03/11 09:08:01;;;;;;;;;;;;;;;19.03;34.87;93182.25;5031018;28;20633;-64
2023/03/11 09:10:31;;;;;;;;;;;;;;;19.55;33.76;93177.22;5031728;28;19956;-71
2023/03/11 09:12:57;;;;;;;;;;;;;;;19.12;34.03;93174.84;5032021;28;20181;-64
2023/03/11 09:15:24;;;;;;;;;;;;;;;19.55;33.54;93166.59;5031629;28;19946;-62
2023/03/11 09:17:51;;;;;;;;;;;;;;;19.40;33.79;93169.31;5031715;28;19998;-64
2023/03/11 09:20:19;;;;;;;;;;;;;;;19.19;33.64;93173.09;5031912;28;20004;-65
2023/03/11 09:22:46;;;;;;;;;;;;;;;18.96;34.62;93166.94;5030759;28;19969;-62
2023/03/11 09:25:15;;;;;;;;;;;;;;;19.11;34.23;93176.72;5031710;28;20057;-66
2023/03/11 09:27:42;;;;;;;;;;;;;;;18.57;35.20;93175.19;5029394;28;19964;-63
2023/03/11 09:30:09;;;;;;;;;;;;;;;18.72;36.08;93164.53;5031719;28;19946;-64
2023/03/11 09:32:35;;;;;;;;;;;;;;;18.44;35.55;93155.97;5030938;28;19997;-65
2023/03/11 09:35:03;;;;;;;;;;;;;;;18.38;35.30;93148.59;5031466;28;19957;-65
2023/03/11 09:37:29;;;;;;;;;;;;;;;18.52;35.22;93167.50;5031137;28;19984;-67
2023/03/11 09:39:56;;;;;;;;;;;;;;;18.01;35.75;93164.03;5031852;28;19946;-64
2023/03/11 09:42:31;;;;;;;;;;;;;;;18.76;35.17;93157.41;5030162;28;19949;-64
2023/03/11 09:45:15;;;;;;;;;;;;;;;19.27;34.81;93144.03;5031112;28;20331;-64
2023/03/11 09:48:00;;;;;;;4.53;4.25;;;;;;;18.85;35.25;93151.94;5030200;28;19959;-62
2023/03/11 09:50:33;;;;;;;;;;;;;;;18.82;35.18;93161.34;5019117;28;20205;-65
2023/03/11 09:53:12;;;;;;;;;;;;;;;19.75;33.13;93148.69;5030632;28;19978;-64
2023/03/11 09:55:39;;;;;;;;;;;;;;;20.20;33.30;93154.03;5030258;28;20437;-64
2023/03/11 09:58:14;;;;;;;;;;;;;;;20.30;32.69;93137.47;5031001;28;19985;-65
2023/03/11 10:00:41;;;;;;;;;;;;;;;20.14;32.12;93139.47;5030199;28;20081;-65
2023/03/11 10:03:34;;;;;;;;;;;;;;;20.12;31.64;93142.50;5030404;28;19981;-64
2023/03/11 10:06:25;;;;;;;;;;;;;;;21.12;31.49;93135.56;5031621;28;20425;-66
2023/03/11 10:09:01;;;;;;;;;;;;;;;21.11;30.97;93139.34;5030613;28;20072;-66
2023/03/11 10:11:31;;;;;;;;;;;;;;;20.30;29.82;93158.75;5028978;28;20434;-64
2023/03/11 10:14:09;;;;;;;;;;;;;;;20.18;29.37;93150.97;5030219;28;19979;-65
2023/03/11 10:16:38;;;;;;;;;;;;;;;19.85;30.04;93161.41;5030267;28;20364;-65
2023/03/11 10:19:43;;;;;;;;;;;;;;;18.65;32.13;93161.72;5030312;28;19985;-62
2023/03/11 10:22:19;;;;;;;;;;;;;;;19.66;30.77;93166.78;5027229;28;19988;-63
2023/03/11 10:24:57;;;;;;;;;;;;;;;20.01;30.24;93162.06;5027316;28;19997;-65
2023/03/11 10:27:28;;;;;;;;;;;;;;;18.90;31.09;93157.69;5028693;28;19980;-64
2023/03/11 10:29:58;;;;;;;;;;;;;;;19.09;31.43;93165.69;5030636;28;19983;-64
2023/03/11 10:32:32;;;;;;;;;;;;;;;19.94;30.98;93169.94;5031025;28;20010;-65
2023/03/11 10:35:04;;;;;;;;;;;;;;;20.53;31.09;93154.16;5028980;28;20065;-65
2023/03/11 10:37:37;;;;;;;;;;;;;;;20.21;30.75;93166.22;5028869;28;20433;-67
2023/03/11 10:40:30;;;;;;;;;;;;;;;19.50;32.10;93158.91;5029772;28;19945;-67
2023/03/11 10:42:59;;;;;;;;;;;;;;;19.09;32.60;93165.69;5029822;28;20091;-64
2023/03/11 10:45:36;;;;;;;;;;;;;;;19.03;32.76;93159.09;5025947;28;20383;-63
2023/03/11 10:48:10;;;;;;;;;;;;;;;19.57;32.13;93164.34;5029712;28;19967;-62
2023/03/11 10:50:41;;;;;;;;;;;;;;;18.74;32.49;93164.94;5029256;28;20288;-64
2023/03/11 10:53:09;;;;;;;;;;;;;;;18.69;33.08;93178.50;5030389;28;20699;-66
2023/03/11 10:55:44;;;;;;;;;;;;;;;18.48;36.35;93199.25;5020837;28;19970;-62
2023/03/11 10:58:12;;;;;;;;;;;;;;;18.12;38.26;93202.91;5028761;28;19977;-62
2023/03/11 11:00:39;;;;;;;;;;;;;;;18.32;39.35;93195.81;5021835;28;20084;-64
2023/03/11 11:03:15;;;;;;;;;;;;;;;18.43;38.09;93202.16;5014590;28;20555;-63
2023/03/11 11:05:42;;;;;;;;;;;;;;;18.73;39.33;93195.25;5017755;28;20307;-63
2023/03/11 11:08:12;;;;;;;;;;;;;;;18.79;39.29;93199.19;5024061;28;20030;-63
2023/03/11 11:10:53;;;;;;;;;;;;;;;18.83;39.33;93199.28;5018009;28;20306;-64
2023/03/11 11:13:21;;;;;;;;;;;;;;;18.98;38.71;93190.47;5018571;28;19945;-66
2023/03/11 11:15:55;;;;;;;;;;;;;;;18.61;37.86;93187.41;5026551;28;19950;-64
2023/03/11 11:18:24;;;;;;;;;;;;;;;18.85;36.25;93181.88;5021532;28;19947;-64
2023/03/11 11:21:11;;;;;;;;;;;;;;;18.59;36.09;93184.34;5021926;28;20011;-65
2023/03/11 11:23:38;;;;;;;;;;;;;;;18.92;34.87;93171.38;5010608;28;19976;-63
2023/03/11 11:26:07;;;;;;;;;;;;;;;19.58;36.04;93167.78;5023005;28;19952;-63
2023/03/11 11:28:34;;;;;;;;;;;;;;;19.78;34.89;93161.31;5024778;28;19957;-62
2023/03/11 11:31:03;;;;;;;;;;;;;;;19.88;36.02;93158.81;5036990;28;19942;-62
2023/03/11 11:33:31;;;;;;;;;;;;;;;19.65;35.96;93154.63;5027047;28;20481;-62
2023/03/11 11:36:02;;;;;;;;;;;;;;;19.29;34.63;93141.78;5028346;28;19975;-63
2023/03/11 11:38:31;;;;;;;;;;;;;;;19.26;35.23;93142.47;5016960;28;19948;-64
2023/03/11 11:41:00;;;;;;;;;;;;;;;19.60;35.21;93141.59;5027563;28;19949;-63
2023/03/11 11:43:33;;;;;;;;;;;;;;;19.03;35.68;93135.22;5019786;28;20504;-64
2023/03/11 11:46:04;;;;;;;;;;;;;;;19.37;35.29;93136.28;5024738;28;20289;-64
2023/03/11 11:48:43;;;;;;;;;;;;;;;18.31;34.00;93129.88;5021232;28;19949;-64
2023/03/11 11:51:34;;;;;;;;;;;;;;;18.35;34.31;93126.19;5027345;28;19961;-64
2023/03/11 11:54:24;;;;;;;;;;;;;;;19.23;33.61;93112.09;5025559;28;20043;-64
2023/03/11 11:56:50;;;;;;;;;;;;;;;19.32;33.33;93109.25;5025077;28;19953;-63
2023/03/11 11:59:19;;;;;;;;;;;;;;;20.12;33.28;93099.19;5027501;28;19986;-64
2023/03/11 12:01:45;;;;;;;;;;;;;;;20.11;32.42;93113.59;5027444;28;19964;-65
2023/03/11 12:04:18;;;;;;;;;;;;;;;19.72;32.21;93102.38;5025944;28;20005;-64
2023/03/11 12:06:53;;;;;;;;;;;;;;;20.05;32.35;93099.84;5027771;28;19991;-61
2023/03/11 12:09:23;;;;;;;;;;;;;;;19.26;32.50;93105.28;5028122;28;19941;-60
2023/03/11 12:12:00;;;;;;;;;;;;;;;19.77;31.98;93096.75;5027918;28;19993;-60
2023/03/11 12:14:35;;;;;;;;;;;;;;;19.91;30.88;93089.00;5015130;28;19949;-63
2023/03/11 12:17:03;;;;;;;;;;;;;;;19.66;30.08;93087.06;5032568;28;19957;-63
2023/03/11 12:19:36;;;;;;;;;;;;;;;19.99;30.00;93084.56;5028992;28;20433;-63
2023/03/11 12:22:20;;;;;;;;;;;;;;;20.31;28.94;93075.16;5016065;28;20438;-62
2023/03/11 12:25:05;;;;;;;;;;;;;;;20.30;29.15;93078.97;5027060;28;20506;-61
2023/03/11 12:27:36;;;;;;;;;;;;;;;20.25;28.25;93089.91;5016308;28;19949;-62
2023/03/11 12:30:14;;;;;;;0.50;0.50;;;;;;;20.34;28.01;93077.13;5029534;28;20524;-63
2023/03/11 12:32:46;;;;;;;1.60;1.53;;;;;;;20.54;28.42;93072.44;5028241;28;20584;-61
2023/03/11 12:35:23;;;;;;;2.47;2.37;;;;;;;20.42;28.80;93083.31;5014760;28;20463;-61
2023/03/11 12:38:12;;;;;;;4.65;4.45;;;;;;;19.82;29.29;93091.13;5024790;28;21023;-62
2023/03/11 12:40:49;;;;;;;26.90;24.55;;;;;;;19.10;31.01;93092.13;5025424;28;20198;-63
2023/03/11 12:43:28;;;;;;;39.88;36.05;;;;;;;19.20;31.02;93092.31;5026874;28;20232;-62
2023/03/11 12:45:59;;;;;;;37.60;33.72;;;;;;;19.21;31.60;93083.22;5026954;28;20264;-60
2023/03/11 12:48:35;;;;;;;28.85;26.45;;;;;;;19.35;31.89;93096.03;5027469;28;20271;-63
2023/03/11 12:51:04;;;;;;;29.20;26.50;;;;;;;19.58;31.16;93090.72;5027782;28;20201;-63
2023/03/11 12:53:42;;;;;;;21.27;19.67;;;;;;;18.54;32.25;93101.63;5020600;28;20198;-61
2023/03/11 12:56:34;;;;;;;19.52;18.02;;;;;;;18.54;32.65;93104.28;5018898;28;20223;-63